Time;durP1;ratioP1;P1;durP2;ratioP2;P2;SDS_P1;SDS_P2;PMS_P1;PMS_P2;Temp;Humidity;BMP_temperature;BMP_pressure;BME280_temperature;BME280_humidity;BME280_pressure;Samples;Min_cycle;Max_cycle;Signal;HPM_P1;HPM_P2
2024/04/21 00:00:51;;;;;;;12.60;9.30;;;;;;;;;;755868;182;905933;-70
2024/04/21 00:03:17;;;;;;;15.77;10.17;;;;;;;;;;760490;183;714193;-68
2024/04/21 00:05:43;;;;;;;16.20;10.57;;;;;;;;;;755490;183;923154;-68
2024/04/21 00:08:11;;;;;;;15.77;9.87;;;;;;;;;;762846;182;822716;-68
2024/04/21 00:10:35;;;;;;;14.40;9.37;;;;;;;;;;764618;183;917165;-68
2024/04/21 00:13:00;;;;;;;17.70;9.27;;;;;;;;;;761511;181;796910;-68
2024/04/21 00:15:26;;;;;;;13.80;8.95;;;;;;;;;;760527;181;920213;-67
2024/04/21 00:17:52;;;;;;;14.87;9.63;;;;;;;;;;759348;183;918322;-69
2024/04/21 00:20:18;;;;;;;11.90;8.67;;;;;;;;;;736907;188;921253;-69
2024/04/21 00:22:44;;;;;;;13.43;9.40;;;;;;;;;;749891;184;912312;-68
2024/04/21 00:25:10;;;;;;;14.77;10.40;;;;;;;;;;752802;184;919185;-69
2024/04/21 00:27:35;;;;;;;16.93;10.60;;;;;;;;;;723877;191;716962;-68
2024/04/21 00:30:01;;;;;;;15.47;10.67;;;;;;;;;;755689;183;814909;-69
2024/04/21 00:32:27;;;;;;;14.27;9.80;;;;;;;;;;756758;181;816262;-70
2024/04/21 00:34:53;;;;;;;18.37;11.27;;;;;;;;;;763067;183;918234;-69
2024/04/21 00:37:19;;;;;;;13.67;10.73;;;;;;;;;;763966;180;626044;-70
2024/04/21 00:39:45;;;;;;;15.77;10.10;;;;;;;;;;764431;183;632558;-70
2024/04/21 00:42:11;;;;;;;13.80;10.40;;;;;;;;;;764392;183;912286;-68
2024/04/21 00:44:37;;;;;;;15.13;10.02;;;;;;;;;;760008;181;816716;-69
2024/04/21 00:47:02;;;;;;;18.43;10.67;;;;;;;;;;760394;183;923652;-68
2024/04/21 00:49:28;;;;;;;18.10;10.90;;;;;;;;;;768896;182;879724;-68
2024/04/21 00:51:54;;;;;;;16.07;10.20;;;;;;;;;;762040;181;923411;-69
2024/04/21 00:54:20;;;;;;;12.10;10.33;;;;;;;;;;765880;181;815685;-69
2024/04/21 00:56:46;;;;;;;14.33;9.90;;;;;;;;;;765348;182;916748;-68
2024/04/21 00:59:11;;;;;;;12.03;9.70;;;;;;;;;;761568;183;816010;-69
2024/04/21 01:01:37;;;;;;;17.07;9.40;;;;;;;;;;763348;180;817929;-69
2024/04/21 01:04:03;;;;;;;14.13;10.20;;;;;;;;;;764428;183;718704;-70
2024/04/21 01:06:29;;;;;;;13.10;10.52;;;;;;;;;;753009;183;953565;-69
2024/04/21 01:08:55;;;;;;;19.60;11.97;;;;;;;;;;754126;183;908879;-65
2024/04/21 01:11:21;;;;;;;16.17;9.43;;;;;;;;;;755639;183;804634;-65
2024/04/21 01:13:47;;;;;;;14.83;10.13;;;;;;;;;;761371;182;845213;-66
2024/04/21 01:16:13;;;;;;;20.50;10.43;;;;;;;;;;752372;183;873763;-66
2024/04/21 01:18:40;;;;;;;18.53;11.93;;;;;;;;;;766095;180;638565;-66
2024/04/21 01:21:05;;;;;;;15.60;11.07;;;;;;;;;;760594;183;888338;-66
2024/04/21 01:23:31;;;;;;;16.90;12.30;;;;;;;;;;756383;180;890329;-65
2024/04/21 01:25:57;;;;;;;11.03;8.63;;;;;;;;;;753969;183;918555;-65
2024/04/21 01:28:22;;;;;;;15.57;9.53;;;;;;;;;;767644;180;616429;-64
2024/04/21 01:30:48;;;;;;;11.70;8.43;;;;;;;;;;760642;180;819557;-65
2024/04/21 01:33:14;;;;;;;13.30;9.17;;;;;;;;;;754223;181;920250;-68
2024/04/21 01:35:40;;;;;;;16.37;10.20;;;;;;;;;;736201;188;916519;-69
2024/04/21 01:38:06;;;;;;;18.00;10.40;;;;;;;;;;742793;186;920645;-68
2024/04/21 01:40:32;;;;;;;15.13;9.03;;;;;;;;;;727807;188;939569;-68
2024/04/21 01:42:57;;;;;;;12.13;9.35;;;;;;;;;;761904;183;920104;-69
2024/04/21 01:45:23;;;;;;;15.90;9.70;;;;;;;;;;763237;183;910546;-70
2024/04/21 01:47:49;;;;;;;18.60;11.10;;;;;;;;;;760615;181;839956;-68
2024/04/21 01:50:15;;;;;;;16.23;11.60;;;;;;;;;;758702;183;918563;-68
2024/04/21 01:52:41;;;;;;;13.53;9.80;;;;;;;;;;758331;183;693836;-69
2024/04/21 01:55:07;;;;;;;13.57;10.13;;;;;;;;;;762540;181;914466;-69
2024/04/21 01:57:33;;;;;;;14.60;11.03;;;;;;;;;;761673;181;814433;-68
2024/04/21 01:59:58;;;;;;;19.00;10.03;;;;;;;;;;759018;182;816308;-68
2024/04/21 02:02:24;;;;;;;18.60;9.43;;;;;;;;;;765316;180;924051;-68
2024/04/21 02:04:50;;;;;;;13.10;9.63;;;;;;;;;;761790;182;812999;-69
2024/04/21 02:07:16;;;;;;;16.70;10.30;;;;;;;;;;739218;187;920409;-70
2024/04/21 02:09:42;;;;;;;14.97;10.30;;;;;;;;;;731429;190;711985;-70
2024/04/21 02:12:08;;;;;;;13.00;10.57;;;;;;;;;;749826;183;816998;-68
2024/04/21 02:14:34;;;;;;;18.70;11.87;;;;;;;;;;752330;184;632727;-69
2024/04/21 02:17:00;;;;;;;15.00;9.30;;;;;;;;;;740097;186;865156;-68
2024/04/21 02:19:25;;;;;;;16.80;11.07;;;;;;;;;;738329;187;821118;-70
2024/04/21 02:21:51;;;;;;;20.43;10.87;;;;;;;;;;741538;187;618803;-69
2024/04/21 02:24:17;;;;;;;15.10;10.83;;;;;;;;;;741787;188;720184;-69
2024/04/21 02:26:43;;;;;;;18.70;11.90;;;;;;;;;;760256;181;875530;-68
2024/04/21 02:29:09;;;;;;;18.70;10.80;;;;;;;;;;759854;181;902446;-68
2024/04/21 02:31:34;;;;;;;17.07;11.40;;;;;;;;;;766824;182;781082;-68
2024/04/21 02:34:00;;;;;;;23.13;12.10;;;;;;;;;;760864;181;921072;-67
2024/04/21 02:36:26;;;;;;;21.10;10.60;;;;;;;;;;761428;180;817989;-68
2024/04/21 02:38:52;;;;;;;17.43;12.63;;;;;;;;;;752515;183;918907;-65
2024/04/21 02:41:18;;;;;;;14.77;9.67;;;;;;;;;;765930;182;917518;-65
2024/04/21 02:43:44;;;;;;;16.50;10.33;;;;;;;;;;761519;181;819299;-65
2024/04/21 02:46:10;;;;;;;12.13;9.00;;;;;;;;;;749858;186;816332;-65
2024/04/21 02:48:35;;;;;;;16.57;11.30;;;;;;;;;;763234;182;916882;-65
2024/04/21 02:51:01;;;;;;;17.60;12.07;;;;;;;;;;764390;181;618146;-70
2024/04/21 02:53:27;;;;;;;16.70;12.32;;;;;;;;;;763603;181;665027;-68
2024/04/21 02:55:53;;;;;;;20.43;11.77;;;;;;;;;;766308;183;918659;-65
2024/04/21 02:58:19;;;;;;;15.33;10.60;;;;;;;;;;766100;180;620498;-65
2024/04/21 03:00:45;;;;;;;11.83;5.37;;;;;;;;;;760349;182;876642;-65
2024/04/21 03:03:10;;;;;;;16.10;11.00;;;;;;;;;;755265;184;717510;-66
2024/04/21 03:05:36;;;;;;;16.80;12.00;;;;;;;;;;760830;181;918338;-68
2024/04/21 03:08:02;;;;;;;18.35;12.77;;;;;;;;;;765088;183;659254;-68
2024/04/21 03:10:28;;;;;;;22.60;12.47;;;;;;;;;;752147;181;940051;-69
2024/04/21 03:12:54;;;;;;;17.53;11.70;;;;;;;;;;759832;183;819596;-69
2024/04/21 03:15:20;;;;;;;16.17;10.70;;;;;;;;;;759280;182;817476;-68
2024/04/21 03:17:46;;;;;;;16.13;11.13;;;;;;;;;;753738;182;920843;-68
2024/04/21 03:20:11;;;;;;;17.83;11.90;;;;;;;;;;767264;181;871409;-65
2024/04/21 03:22:37;;;;;;;15.30;9.67;;;;;;;;;;762293;182;847754;-68
2024/04/21 03:25:03;;;;;;;12.63;10.73;;;;;;;;;;761890;183;745442;-70
2024/04/21 03:27:30;;;;;;;17.63;12.40;;;;;;;;;;765051;182;892366;-68
2024/04/21 03:29:55;;;;;;;21.05;10.05;;;;;;;;;;761686;180;814563;-69
2024/04/21 03:32:21;;;;;;;17.83;12.73;;;;;;;;;;763388;180;816293;-69
2024/04/21 03:34:56;;;;;;;15.90;11.03;;;;;;;;;;765020;181;919622;-69
2024/04/21 03:37:21;;;;;;;15.23;10.17;;;;;;;;;;765871;181;817782;-68
2024/04/21 03:39:47;;;;;;;24.33;13.57;;;;;;;;;;754036;183;818715;-69
2024/04/21 03:42:13;;;;;;;16.27;12.07;;;;;;;;;;757916;183;817262;-68
2024/04/21 03:44:39;;;;;;;18.80;13.60;;;;;;;;;;766026;183;800397;-69
2024/04/21 03:47:05;;;;;;;19.50;13.30;;;;;;;;;;762219;180;821846;-68
2024/04/21 03:49:31;;;;;;;13.13;9.43;;;;;;;;;;747011;184;936056;-68
2024/04/21 03:51:56;;;;;;;18.13;12.20;;;;;;;;;;765714;181;889965;-68
2024/04/21 03:54:22;;;;;;;14.20;9.83;;;;;;;;;;763407;182;918601;-69
2024/04/21 03:56:48;;;;;;;16.50;10.30;;;;;;;;;;761355;181;922067;-68
2024/04/21 03:59:14;;;;;;;15.80;9.33;;;;;;;;;;763148;180;816093;-68
2024/04/21 04:01:40;;;;;;;15.88;9.02;;;;;;;;;;764437;183;908756;-69
2024/04/21 04:04:06;;;;;;;20.27;10.60;;;;;;;;;;753026;183;711192;-68
2024/04/21 04:06:31;;;;;;;18.13;10.07;;;;;;;;;;759772;181;918992;-68
2024/04/21 04:08:58;;;;;;;15.07;7.43;;;;;;;;;;766097;183;822604;-68
2024/04/21 04:11:23;;;;;;;16.20;11.40;;;;;;;;;;750913;183;817442;-67
2024/04/21 04:13:49;;;;;;;17.43;10.53;;;;;;;;;;765168;182;626941;-70
2024/04/21 04:16:15;;;;;;;16.97;10.90;;;;;;;;;;761557;181;712432;-68
2024/04/21 04:18:41;;;;;;;13.40;7.97;;;;;;;;;;754483;183;921295;-69
2024/04/21 04:21:07;;;;;;;18.63;10.03;;;;;;;;;;756853;183;616610;-69
2024/04/21 04:23:32;;;;;;;14.30;8.85;;;;;;;;;;761711;180;872213;-68
2024/04/21 04:25:58;;;;;;;17.43;10.80;;;;;;;;;;754711;182;807391;-69
2024/04/21 04:28:24;;;;;;;14.23;8.77;;;;;;;;;;765979;179;761822;-64
2024/04/21 04:30:50;;;;;;;21.55;11.30;;;;;;;;;;760832;182;918871;-66
2024/04/21 04:33:16;;;;;;;10.30;7.60;;;;;;;;;;758260;182;931017;-66
2024/04/21 04:35:42;;;;;;;15.20;9.02;;;;;;;;;;751843;181;919694;-64
2024/04/21 04:38:07;;;;;;;17.97;10.63;;;;;;;;;;755784;181;914806;-64
2024/04/21 04:40:35;;;;;;;14.30;9.63;;;;;;;;;;768128;183;634036;-65
2024/04/21 04:42:59;;;;;;;13.30;8.87;;;;;;;;;;763538;180;816400;-65
2024/04/21 04:45:25;;;;;;;16.80;9.73;;;;;;;;;;757762;183;713573;-68
2024/04/21 04:47:51;;;;;;;14.63;7.50;;;;;;;;;;765684;181;810244;-68
2024/04/21 04:50:17;;;;;;;10.98;6.82;;;;;;;;;;761242;182;856351;-70
2024/04/21 04:52:42;;;;;;;14.57;8.77;;;;;;;;;;756406;183;737238;-68
2024/04/21 04:55:08;;;;;;;13.30;7.67;;;;;;;;;;759484;180;943184;-69
2024/04/21 04:57:34;;;;;;;17.23;10.90;;;;;;;;;;762247;181;819018;-68
2024/04/21 05:00:00;;;;;;;17.17;10.30;;;;;;;;;;749840;183;858928;-70
2024/04/21 05:02:26;;;;;;;12.00;7.40;;;;;;;;;;761554;180;813425;-70
2024/04/21 05:04:52;;;;;;;13.70;8.63;;;;;;;;;;765601;183;915946;-70
2024/04/21 05:07:18;;;;;;;11.93;7.63;;;;;;;;;;765007;183;624893;-70
2024/04/21 05:09:43;;;;;;;10.33;6.90;;;;;;;;;;760398;180;921810;-70
2024/04/21 05:12:09;;;;;;;8.60;5.80;;;;;;;;;;764992;180;721671;-70
2024/04/21 05:14:35;;;;;;;48.87;17.50;;;;;;;;;;763513;180;624531;-70
2024/04/21 05:17:01;;;;;;;13.80;9.50;;;;;;;;;;763531;182;701241;-69
2024/04/21 05:19:27;;;;;;;9.13;7.37;;;;;;;;;;758993;183;815460;-70
2024/04/21 05:21:53;;;;;;;14.07;9.23;;;;;;;;;;739912;188;767233;-70
2024/04/21 05:24:18;;;;;;;13.50;8.97;;;;;;;;;;740036;188;616584;-70
2024/04/21 05:26:44;;;;;;;13.47;10.07;;;;;;;;;;740308;187;897379;-69
2024/04/21 05:29:10;;;;;;;9.30;6.50;;;;;;;;;;751919;184;914744;-69
2024/04/21 05:31:36;;;;;;;12.70;7.33;;;;;;;;;;748112;183;916701;-70
2024/04/21 05:34:02;;;;;;;17.60;9.90;;;;;;;;;;752376;183;921244;-71
2024/04/21 05:36:28;;;;;;;11.90;7.32;;;;;;;;;;756086;183;916577;-69
2024/04/21 05:38:53;;;;;;;12.87;8.20;;;;;;;;;;766093;182;806217;-69
2024/04/21 05:41:19;;;;;;;18.47;12.20;;;;;;;;;;760613;182;815747;-69
2024/04/21 05:43:46;;;;;;;10.50;7.23;;;;;;;;;;761095;183;625795;-71
2024/04/21 05:46:12;;;;;;;12.27;8.43;;;;;;;;;;756214;182;918056;-70
2024/04/21 05:48:38;;;;;;;11.47;6.87;;;;;;;;;;759281;181;917074;-70
2024/04/21 05:51:04;;;;;;;15.13;8.00;;;;;;;;;;755186;184;811690;-70
2024/04/21 05:53:29;;;;;;;14.00;8.70;;;;;;;;;;758685;183;816312;-70
2024/04/21 05:55:55;;;;;;;9.55;5.72;;;;;;;;;;760674;183;1022830;-68
2024/04/21 05:58:22;;;;;;;11.18;6.70;;;;;;;;;;757286;183;818012;-70
2024/04/21 06:00:47;;;;;;;8.57;5.57;;;;;;;;;;762732;180;816795;-70
2024/04/21 06:03:13;;;;;;;12.53;8.13;;;;;;;;;;756044;183;915902;-70
2024/04/21 06:05:39;;;;;;;12.30;7.90;;;;;;;;;;765444;181;632906;-70
2024/04/21 06:08:06;;;;;;;8.70;5.10;;;;;;;;;;767239;182;614996;-69
2024/04/21 06:10:31;;;;;;;14.47;7.40;;;;;;;;;;762000;183;917785;-70
2024/04/21 06:12:57;;;;;;;10.33;7.97;;;;;;;;;;763164;183;814432;-69
2024/04/21 06:15:23;;;;;;;8.63;4.70;;;;;;;;;;767197;182;820125;-69
2024/04/21 06:17:49;;;;;;;10.40;5.80;;;;;;;;;;763290;180;837891;-70
2024/04/21 06:20:14;;;;;;;9.17;6.80;;;;;;;;;;750502;186;811493;-69
2024/04/21 06:22:40;;;;;;;9.70;4.73;;;;;;;;;;763577;183;918245;-70
2024/04/21 06:25:06;;;;;;;16.87;10.70;;;;;;;;;;763201;183;810162;-70
2024/04/21 06:27:33;;;;;;;9.97;6.13;;;;;;;;;;759057;182;904300;-69
2024/04/21 06:29:58;;;;;;;13.90;9.30;;;;;;;;;;757949;182;918892;-69
2024/04/21 06:32:24;;;;;;;11.80;7.80;;;;;;;;;;762401;181;698543;-68
2024/04/21 06:34:50;;;;;;;11.13;6.90;;;;;;;;;;754487;183;915323;-68
2024/04/21 06:40:00;;;;;;;11.05;7.60;;;;;;;;;;777007;172;936628;-68
2024/04/21 06:42:26;;;;;;;17.93;9.40;;;;;;;;;;765829;182;802410;-69
2024/04/21 06:44:51;;;;;;;11.57;7.07;;;;;;;;;;751125;183;913992;-70
2024/04/21 06:47:17;;;;;;;9.07;4.77;;;;;;;;;;764730;182;626594;-69
2024/04/21 06:49:43;;;;;;;7.73;6.17;;;;;;;;;;764975;183;763593;-70
2024/04/21 06:52:09;;;;;;;7.45;4.57;;;;;;;;;;758238;183;813227;-69
2024/04/21 06:54:35;;;;;;;6.45;3.97;;;;;;;;;;753357;183;879537;-69
2024/04/21 06:57:01;;;;;;;6.60;4.17;;;;;;;;;;756851;183;917787;-69
2024/04/21 06:59:26;;;;;;;5.80;4.53;;;;;;;;;;754428;183;913050;-70
2024/04/21 07:01:52;;;;;;;11.18;3.62;;;;;;;;;;753270;183;910400;-68
2024/04/21 07:04:18;;;;;;;7.50;4.33;;;;;;;;;;751907;183;927338;-69
2024/04/21 07:06:44;;;;;;;8.73;4.40;;;;;;;;;;759277;183;628013;-70
2024/04/21 07:09:10;;;;;;;6.37;4.30;;;;;;;;;;752848;183;931585;-69
2024/04/21 07:11:36;;;;;;;11.00;6.20;;;;;;;;;;759023;183;897512;-68
2024/04/21 07:14:01;;;;;;;9.87;5.57;;;;;;;;;;757777;183;815982;-69
2024/04/21 07:16:27;;;;;;;7.33;3.90;;;;;;;;;;756071;183;890898;-70
2024/04/21 07:18:53;;;;;;;8.17;5.00;;;;;;;;;;753980;183;812890;-68
2024/04/21 07:21:19;;;;;;;10.87;6.13;;;;;;;;;;758300;184;706928;-70
2024/04/21 07:23:45;;;;;;;9.17;6.10;;;;;;;;;;755693;183;709659;-69
2024/04/21 07:26:11;;;;;;;12.20;5.57;;;;;;;;;;753583;183;764107;-69
2024/04/21 07:28:36;;;;;;;10.00;5.83;;;;;;;;;;759088;183;739187;-70
2024/04/21 07:31:02;;;;;;;4.87;3.77;;;;;;;;;;754675;183;627066;-70
2024/04/21 07:33:28;;;;;;;7.70;4.72;;;;;;;;;;754293;184;799279;-69
2024/04/21 07:35:54;;;;;;;6.57;4.27;;;;;;;;;;752216;183;925103;-69
2024/04/21 07:38:20;;;;;;;11.93;5.57;;;;;;;;;;758960;183;717803;-70
2024/04/21 07:40:46;;;;;;;9.77;5.07;;;;;;;;;;758512;183;626706;-70
2024/04/21 07:43:14;;;;;;;11.80;6.50;;;;;;;;;;756910;183;634781;-70
2024/04/21 07:45:37;;;;;;;10.77;5.70;;;;;;;;;;761251;184;619921;-70
2024/04/21 07:48:03;;;;;;;5.60;3.60;;;;;;;;;;757472;183;617137;-70
2024/04/21 07:50:32;;;;;;;7.68;5.45;;;;;;;;;;757795;182;631209;-70
2024/04/21 07:52:55;;;;;;;7.50;3.70;;;;;;;;;;761133;183;618448;-71
2024/04/21 07:55:21;;;;;;;12.37;7.00;;;;;;;;;;755986;183;623954;-69
2024/04/21 07:57:47;;;;;;;5.17;2.40;;;;;;;;;;752733;183;897387;-69
2024/04/21 08:00:13;;;;;;;17.80;7.03;;;;;;;;;;760438;183;814260;-69
2024/04/21 08:02:38;;;;;;;17.40;9.40;;;;;;;;;;751021;183;912933;-69
2024/04/21 08:05:04;;;;;;;26.10;8.97;;;;;;;;;;755499;183;915978;-70
2024/04/21 08:07:30;;;;;;;25.20;10.60;;;;;;;;;;754378;183;917659;-70
2024/04/21 08:09:56;;;;;;;27.43;9.50;;;;;;;;;;758273;184;817790;-69
2024/04/21 08:12:22;;;;;;;18.50;10.13;;;;;;;;;;751643;184;938392;-69
2024/04/21 08:14:48;;;;;;;20.30;11.07;;;;;;;;;;751716;183;882103;-69
2024/04/21 08:17:14;;;;;;;18.97;10.30;;;;;;;;;;757553;183;817785;-69
2024/04/21 08:19:39;;;;;;;13.80;8.40;;;;;;;;;;749239;183;820301;-69
2024/04/21 08:22:05;;;;;;;17.90;8.27;;;;;;;;;;758562;183;920039;-69
2024/04/21 08:24:31;;;;;;;19.30;10.18;;;;;;;;;;759473;183;715125;-70
2024/04/21 08:26:57;;;;;;;34.97;15.20;;;;;;;;;;753199;183;818030;-69
2024/04/21 08:29:23;;;;;;;15.70;6.60;;;;;;;;;;752094;183;919716;-69
2024/04/21 08:31:49;;;;;;;29.73;13.13;;;;;;;;;;758496;183;723638;-69
2024/04/21 08:34:15;;;;;;;14.57;9.67;;;;;;;;;;755286;183;919481;-69
2024/04/21 08:36:40;;;;;;;10.67;6.57;;;;;;;;;;757549;183;917897;-69
2024/04/21 08:39:06;;;;;;;11.43;7.10;;;;;;;;;;752780;183;914746;-70
2024/04/21 08:41:32;;;;;;;10.20;6.60;;;;;;;;;;758645;183;708413;-70
2024/04/21 08:43:58;;;;;;;9.60;5.33;;;;;;;;;;759769;183;635414;-70
2024/04/21 08:46:24;;;;;;;7.47;4.97;;;;;;;;;;752083;183;920530;-70
2024/04/21 08:48:50;;;;;;;9.23;7.77;;;;;;;;;;759470;183;823858;-69
2024/04/21 08:51:15;;;;;;;8.33;4.47;;;;;;;;;;751718;183;883953;-70
2024/04/21 08:53:41;;;;;;;9.67;6.07;;;;;;;;;;755652;184;786894;-71
2024/04/21 08:56:07;;;;;;;14.60;7.83;;;;;;;;;;762076;183;714682;-70
2024/04/21 08:58:33;;;;;;;7.97;5.73;;;;;;;;;;759203;183;899156;-70
2024/04/21 09:00:59;;;;;;;10.47;5.47;;;;;;;;;;752393;182;915252;-70
2024/04/21 09:03:25;;;;;;;9.00;5.63;;;;;;;;;;761926;182;619132;-69
2024/04/21 09:05:52;;;;;;;7.77;4.97;;;;;;;;;;753719;184;881671;-70
2024/04/21 09:08:16;;;;;;;10.83;6.47;;;;;;;;;;759943;182;743016;-70
2024/04/21 09:10:42;;;;;;;4.57;2.93;;;;;;;;;;752930;183;897345;-69
2024/04/21 09:13:09;;;;;;;8.97;5.27;;;;;;;;;;757595;183;916083;-70
2024/04/21 09:15:34;;;;;;;9.80;4.13;;;;;;;;;;754788;183;931892;-70
2024/04/21 09:18:00;;;;;;;7.07;4.00;;;;;;;;;;752367;183;917189;-69
2024/04/21 09:20:25;;;;;;;8.20;5.25;;;;;;;;;;757898;183;830425;-69
2024/04/21 09:22:51;;;;;;;10.40;6.90;;;;;;;;;;755144;183;917172;-68
2024/04/21 09:25:19;;;;;;;9.18;5.68;;;;;;;;;;756764;183;751008;-70
2024/04/21 09:27:47;;;;;;;8.93;5.23;;;;;;;;;;759893;183;820109;-71
2024/04/21 09:30:12;;;;;;;10.27;5.27;;;;;;;;;;751011;183;820285;-71
2024/04/21 09:32:38;;;;;;;6.77;5.83;;;;;;;;;;752690;183;814224;-70
2024/04/21 09:35:05;;;;;;;7.03;5.50;;;;;;;;;;752612;184;916353;-70
2024/04/21 09:37:31;;;;;;;12.80;9.60;;;;;;;;;;760449;183;636711;-70
2024/04/21 09:39:56;;;;;;;9.00;5.73;;;;;;;;;;753882;183;914886;-69
2024/04/21 09:42:23;;;;;;;14.80;8.67;;;;;;;;;;752327;183;917107;-70
2024/04/21 09:44:49;;;;;;;10.13;5.67;;;;;;;;;;758653;183;859756;-72
2024/04/21 09:47:14;;;;;;;12.03;5.67;;;;;;;;;;757523;183;627845;-70
2024/04/21 09:49:43;;;;;;;7.13;5.20;;;;;;;;;;759624;183;811799;-69
2024/04/21 09:52:09;;;;;;;7.77;5.30;;;;;;;;;;759397;183;680790;-68
2024/04/21 09:54:34;;;;;;;14.07;7.27;;;;;;;;;;758195;183;801927;-71
2024/04/21 09:57:18;;;;;;;7.90;4.70;;;;;;;;;;754404;183;813255;-71
2024/04/21 09:59:44;;;;;;;7.77;5.03;;;;;;;;;;757641;183;815617;-70
2024/04/21 10:02:12;;;;;;;8.73;4.75;;;;;;;;;;752692;183;910219;-69
2024/04/21 10:04:37;;;;;;;11.00;7.20;;;;;;;;;;758623;183;779802;-69
2024/04/21 10:07:03;;;;;;;9.00;5.90;;;;;;;;;;751309;183;919916;-71
2024/04/21 10:09:29;;;;;;;11.40;7.43;;;;;;;;;;755920;183;736315;-70
2024/04/21 10:11:55;;;;;;;11.80;7.93;;;;;;;;;;757349;183;817122;-69
2024/04/21 10:14:21;;;;;;;9.67;5.23;;;;;;;;;;757086;182;917099;-70
2024/04/21 10:16:47;;;;;;;8.70;5.73;;;;;;;;;;758703;182;910332;-69
2024/04/21 10:19:13;;;;;;;16.30;9.03;;;;;;;;;;761711;183;618069;-70
2024/04/21 10:21:39;;;;;;;13.63;8.87;;;;;;;;;;753583;183;915385;-69
2024/04/21 10:24:05;;;;;;;12.07;8.07;;;;;;;;;;756717;183;945301;-69
2024/04/21 10:26:31;;;;;;;12.23;7.70;;;;;;;;;;758623;184;720180;-70
2024/04/21 10:29:02;;;;;;;12.30;6.43;;;;;;;;;;751580;184;914181;-70
2024/04/21 10:31:28;;;;;;;11.40;6.90;;;;;;;;;;759703;183;938961;-71
2024/04/21 10:34:00;;;;;;;14.60;9.90;;;;;;;;;;753528;184;912209;-69
2024/04/21 10:36:26;;;;;;;11.47;7.77;;;;;;;;;;754646;184;771298;-66
2024/04/21 10:38:53;;;;;;;14.67;9.10;;;;;;;;;;761551;182;921011;-63
2024/04/21 10:41:20;;;;;;;12.07;7.40;;;;;;;;;;756651;183;919087;-64
2024/04/21 10:43:46;;;;;;;13.40;9.13;;;;;;;;;;752757;183;917536;-66
2024/04/21 10:46:12;;;;;;;20.80;14.30;;;;;;;;;;760156;183;711072;-64
2024/04/21 10:48:38;;;;;;;19.63;10.67;;;;;;;;;;754180;183;900115;-65
2024/04/21 10:51:03;;;;;;;13.43;9.53;;;;;;;;;;760475;183;816332;-64
2024/04/21 10:53:29;;;;;;;14.70;8.80;;;;;;;;;;759547;183;913547;-65
2024/04/21 10:55:55;;;;;;;22.20;11.53;;;;;;;;;;756135;183;814076;-65
2024/04/21 10:58:21;;;;;;;15.13;7.67;;;;;;;;;;755697;183;717622;-65
2024/04/21 11:00:47;;;;;;;16.07;10.30;;;;;;;;;;751367;184;896416;-66
2024/04/21 11:03:13;;;;;;;18.93;11.40;;;;;;;;;;761502;183;808974;-64
2024/04/21 11:05:50;;;;;;;17.17;10.13;;;;;;;;;;754601;183;920334;-64
2024/04/21 11:08:17;;;;;;;13.23;7.73;;;;;;;;;;752382;184;876454;-64
2024/04/21 11:10:42;;;;;;;15.80;10.23;;;;;;;;;;758335;184;815383;-66
2024/04/21 11:13:08;;;;;;;13.80;8.40;;;;;;;;;;754712;184;736700;-66
2024/04/21 11:15:42;;;;;;;11.77;7.20;;;;;;;;;;751379;183;920979;-65
2024/04/21 11:18:08;;;;;;;14.80;7.37;;;;;;;;;;750586;183;819096;-66
2024/04/21 11:20:33;;;;;;;10.70;6.53;;;;;;;;;;758490;183;914845;-65
2024/04/21 11:22:59;;;;;;;7.90;4.23;;;;;;;;;;755567;184;712736;-65
2024/04/21 11:25:25;;;;;;;10.37;6.47;;;;;;;;;;754330;182;920065;-65
2024/04/21 11:27:51;;;;;;;12.30;7.13;;;;;;;;;;760971;182;820817;-64
2024/04/21 11:30:19;;;;;;;15.33;7.30;;;;;;;;;;759237;183;718912;-66
2024/04/21 11:32:44;;;;;;;23.03;12.73;;;;;;;;;;757858;182;824795;-70
2024/04/21 11:35:10;;;;;;;9.50;5.50;;;;;;;;;;751237;183;918732;-70
2024/04/21 11:37:36;;;;;;;9.87;6.23;;;;;;;;;;762013;184;663861;-70
2024/04/21 11:40:02;;;;;;;10.70;6.67;;;;;;;;;;754160;183;630988;-71
2024/04/21 11:42:28;;;;;;;13.83;6.90;;;;;;;;;;758776;183;619888;-71
2024/04/21 11:44:54;;;;;;;8.17;5.00;;;;;;;;;;764047;183;776988;-71
2024/04/21 11:47:19;;;;;;;9.63;6.18;;;;;;;;;;759020;184;815665;-69
2024/04/21 11:49:45;;;;;;;9.53;6.60;;;;;;;;;;753673;183;920605;-68
2024/04/21 11:52:11;;;;;;;10.57;6.00;;;;;;;;;;764044;183;618123;-68
2024/04/21 11:54:37;;;;;;;13.67;9.37;;;;;;;;;;758089;183;909160;-68
2024/04/21 11:57:03;;;;;;;10.87;6.60;;;;;;;;;;759584;183;809364;-69
2024/04/21 11:59:29;;;;;;;15.90;7.43;;;;;;;;;;754384;183;811727;-69
2024/04/21 12:01:55;;;;;;;13.13;6.80;;;;;;;;;;756631;183;919814;-68
2024/04/21 12:04:20;;;;;;;15.37;7.93;;;;;;;;;;753687;184;948533;-68
2024/04/21 12:06:46;;;;;;;12.67;7.10;;;;;;;;;;752898;183;919259;-68
2024/04/21 12:09:12;;;;;;;14.63;9.30;;;;;;;;;;761159;183;918036;-67
2024/04/21 12:11:38;;;;;;;14.10;8.57;;;;;;;;;;756152;183;715571;-68
2024/04/21 12:14:07;;;;;;;9.50;6.40;;;;;;;;;;761263;183;820531;-68
2024/04/21 12:16:32;;;;;;;13.60;10.15;;;;;;;;;;754594;185;917839;-68
2024/04/21 12:18:58;;;;;;;18.43;10.43;;;;;;;;;;754463;184;816374;-67
2024/04/21 12:21:24;;;;;;;10.60;6.93;;;;;;;;;;754892;183;715586;-68
2024/04/21 12:23:50;;;;;;;10.83;7.50;;;;;;;;;;754534;184;916962;-68
2024/04/21 12:26:16;;;;;;;8.00;4.80;;;;;;;;;;756101;184;614932;-68
2024/04/21 12:28:42;;;;;;;17.07;10.23;;;;;;;;;;758863;183;915882;-69
2024/04/21 12:31:07;;;;;;;10.43;6.40;;;;;;;;;;758603;183;856334;-69
2024/04/21 12:33:33;;;;;;;9.53;5.80;;;;;;;;;;759789;184;697458;-68
2024/04/21 12:35:59;;;;;;;9.23;4.40;;;;;;;;;;759322;181;941531;-68
2024/04/21 12:38:25;;;;;;;11.83;7.10;;;;;;;;;;759455;183;816938;-68
2024/04/21 12:40:51;;;;;;;10.00;6.28;;;;;;;;;;762172;182;918796;-68
2024/04/21 12:43:17;;;;;;;9.27;5.30;;;;;;;;;;751170;184;927021;-68
2024/04/21 12:45:42;;;;;;;7.83;6.20;;;;;;;;;;756546;184;916449;-68
2024/04/21 12:48:09;;;;;;;9.73;7.13;;;;;;;;;;764628;183;816097;-67
2024/04/21 12:50:34;;;;;;;17.43;8.40;;;;;;;;;;755677;183;918285;-67
2024/04/21 12:53:00;;;;;;;10.90;8.00;;;;;;;;;;756318;184;815168;-64
2024/04/21 12:55:26;;;;;;;6.87;4.40;;;;;;;;;;750990;183;917485;-70
2024/04/21 12:57:52;;;;;;;13.07;7.37;;;;;;;;;;757627;183;871977;-67
2024/04/21 13:00:18;;;;;;;11.57;7.00;;;;;;;;;;758252;183;814615;-68
2024/04/21 13:02:43;;;;;;;8.97;6.50;;;;;;;;;;755153;183;814798;-68
2024/04/21 13:05:09;;;;;;;13.10;9.43;;;;;;;;;;756862;184;795973;-65
2024/04/21 13:07:35;;;;;;;12.90;7.00;;;;;;;;;;750933;184;898798;-65
2024/04/21 13:10:01;;;;;;;11.60;7.83;;;;;;;;;;755023;184;706029;-69
2024/04/21 13:12:27;;;;;;;7.13;4.50;;;;;;;;;;758749;184;918495;-69
2024/04/21 13:14:54;;;;;;;8.37;4.87;;;;;;;;;;752761;184;919892;-67
2024/04/21 13:17:20;;;;;;;14.70;7.72;;;;;;;;;;760834;183;914734;-67
2024/04/21 13:19:45;;;;;;;15.60;8.50;;;;;;;;;;758369;183;772785;-68
2024/04/21 13:22:10;;;;;;;9.23;6.87;;;;;;;;;;754575;183;919353;-68
2024/04/21 13:24:36;;;;;;;12.03;7.60;;;;;;;;;;754500;184;1023492;-68
2024/04/21 13:27:02;;;;;;;9.82;6.82;;;;;;;;;;754344;184;932745;-68
2024/04/21 13:29:29;;;;;;;10.67;6.17;;;;;;;;;;765180;183;617399;-68
2024/04/21 13:31:54;;;;;;;10.50;7.03;;;;;;;;;;755081;184;746738;-68
2024/04/21 13:34:20;;;;;;;24.60;11.67;;;;;;;;;;753991;183;918027;-68
2024/04/21 13:36:46;;;;;;;11.90;8.90;;;;;;;;;;756281;184;713080;-68
2024/04/21 13:39:12;;;;;;;12.03;8.67;;;;;;;;;;759911;183;818409;-68
2024/04/21 13:41:37;;;;;;;12.82;8.23;;;;;;;;;;752353;184;715599;-67
2024/04/21 13:44:03;;;;;;;10.23;6.50;;;;;;;;;;758904;184;806043;-68
2024/04/21 13:46:29;;;;;;;8.60;5.60;;;;;;;;;;754411;184;820391;-67
2024/04/21 13:48:55;;;;;;;20.80;12.07;;;;;;;;;;756322;183;920667;-68
2024/04/21 13:51:21;;;;;;;14.77;9.80;;;;;;;;;;760774;182;715977;-67
2024/04/21 13:53:47;;;;;;;13.33;7.90;;;;;;;;;;755298;184;810118;-68
2024/04/21 13:56:12;;;;;;;8.80;5.60;;;;;;;;;;755662;183;877967;-68
2024/04/21 13:58:38;;;;;;;13.83;9.57;;;;;;;;;;756151;183;1045343;-67
2024/04/21 14:01:04;;;;;;;8.70;5.33;;;;;;;;;;757496;184;717344;-67
2024/04/21 14:03:30;;;;;;;10.03;6.27;;;;;;;;;;758779;183;815440;-67
2024/04/21 14:05:56;;;;;;;8.87;5.10;;;;;;;;;;755190;184;918104;-67
2024/04/21 14:08:22;;;;;;;15.50;10.20;;;;;;;;;;760195;184;865530;-68
2024/04/21 14:10:48;;;;;;;16.87;9.63;;;;;;;;;;749381;184;922000;-68